Terminal Aerodrome Forecast
Issued by NWS

Home | Current Version | Previous Version | Text Only | Print | Product List | Glossary On
Versions: 1 2 3 4 5 6 7 8 9 10 11 12 13 14 15 16 17 18 19
000
FTUS46 KLOX 202100 AAD
TAFBUR
TAF AMD
KBUR 202114Z 2021/2118 00000KT P6SM SCT028
     FM202145 18007KT P6SM SKC
     FM210400 VRB03KT P6SM SKC
     FM210700 VRB03KT P6SM OVC015=

USA.gov is the U.S. government's official web portal to all federal, state and local government web resources and services.